Time;durP1;ratioP1;P1;durP2;ratioP2;P2;SDS_P1;SDS_P2;PMS_P1;PMS_P2;Temp;Humidity;BMP_temperature;BMP_pressure;BME280_temperature;BME280_humidity;BME280_pressure;Samples;Min_cycle;Max_cycle;Signal;HPM_P1;HPM_P2
2021/12/18 00:00:07;;;;;;;6.20;2.80;;;;;;;3.18;78.66;101981.52;84795;1321;22593;-70
2021/12/18 00:02:37;;;;;;;8.30;2.50;;;;;;;3.17;78.83;101988.56;84826;1325;25430;-69
2021/12/18 00:04:43;;;;;;;5.70;2.50;;;;;;;3.15;78.79;101998.18;84826;1327;22580;-70
2021/12/18 00:06:49;;;;;;;5.20;1.70;;;;;;;3.13;78.87;102000.23;84802;1326;22580;-74
2021/12/18 00:08:56;;;;;;;10.70;2.60;;;;;;;3.13;78.99;102001.26;84817;1327;22634;-78
2021/12/18 00:11:02;;;;;;;8.50;2.80;;;;;;;3.13;79.04;101988.49;84829;1325;25272;-76
2021/12/18 00:13:09;;;;;;;4.20;1.80;;;;;;;3.14;79.00;101980.40;84817;1325;23959;-68
2021/12/18 00:15:15;;;;;;;7.30;2.70;;;;;;;3.16;79.02;101973.71;84783;1327;24350;-68
2021/12/18 00:17:22;;;;;;;10.10;2.70;;;;;;;3.18;79.03;101973.92;84814;1327;25312;-69
2021/12/18 00:19:28;;;;;;;8.80;2.50;;;;;;;3.18;78.87;101970.31;84812;1325;22832;-69
2021/12/18 00:21:38;;;;;;;12.90;3.20;;;;;;;3.18;79.08;101968.40;84852;1325;22609;-74
2021/12/18 00:23:45;;;;;;;10.50;3.10;;;;;;;3.21;79.20;101963.29;84830;1323;24987;-73
2021/12/18 00:25:51;;;;;;;5.80;3.40;;;;;;;3.21;79.40;101970.20;84799;1325;24064;-72
2021/12/18 00:27:58;;;;;;;5.60;2.80;;;;;;;3.20;79.15;101979.33;84127;1327;1003606;-69
2021/12/18 00:30:09;;;;;;;7.80;4.00;;;;;;;3.20;79.04;101989.83;84802;1322;25603;-70
2021/12/18 00:32:19;;;;;;;6.20;2.10;;;;;;;3.17;79.22;101995.11;84836;1325;22609;-70
2021/12/18 00:34:25;;;;;;;5.50;2.10;;;;;;;3.15;79.08;101990.60;84829;1325;25022;-70
2021/12/18 00:36:32;;;;;;;8.00;2.80;;;;;;;3.14;79.10;102000.73;84823;1324;26524;-72
2021/12/18 00:38:40;;;;;;;10.20;2.50;;;;;;;3.15;79.21;102003.86;84824;1326;22591;-74
2021/12/18 00:40:59;;;;;;;8.00;3.00;;;;;;;3.14;79.14;102005.91;84817;1325;22665;-76
2021/12/18 00:43:21;;;;;;;7.10;2.80;;;;;;;3.13;79.10;102008.48;84851;1322;23136;-70
2021/12/18 00:45:31;;;;;;;5.50;2.50;;;;;;;3.10;79.21;102012.77;84820;1322;22930;-69
2021/12/18 00:47:41;;;;;;;9.90;3.60;;;;;;;3.07;79.19;102011.84;84844;1327;22723;-73
2021/12/18 00:49:51;;;;;;;10.70;2.70;;;;;;;3.05;79.24;102016.80;84816;1325;22597;-73
2021/12/18 00:52:01;;;;;;;11.10;2.80;;;;;;;3.04;79.25;102025.39;84846;1325;22597;-70
2021/12/18 00:54:07;;;;;;;7.20;3.20;;;;;;;3.01;79.17;102037.06;84781;1327;22595;-70
2021/12/18 00:56:14;;;;;;;5.80;2.50;;;;;;;2.99;79.28;102035.82;84824;1325;22615;-70
2021/12/18 00:58:24;;;;;;;9.90;2.50;;;;;;;2.99;79.36;102025.11;84797;1325;22817;-70
2021/12/18 01:00:33;;;;;;;5.30;2.60;;;;;;;2.98;79.20;102020.45;84813;1327;24315;-70
2021/12/18 01:02:44;;;;;;;6.00;2.30;;;;;;;2.93;79.03;102019.67;84811;1322;22648;-74
2021/12/18 01:04:50;;;;;;;9.00;2.90;;;;;;;2.86;79.10;102019.70;84801;1327;22884;-74
2021/12/18 01:06:57;;;;;;;9.50;3.20;;;;;;;2.81;79.12;102016.84;84787;1326;22627;-74
2021/12/18 01:09:03;;;;;;;7.00;2.90;;;;;;;2.76;79.23;102015.36;84815;1319;22583;-73
2021/12/18 01:11:30;;;;;;;7.20;3.20;;;;;;;2.71;79.22;102017.32;84818;1325;24045;-73
2021/12/18 01:13:51;;;;;;;8.60;3.20;;;;;;;2.65;79.36;102028.73;84756;1328;23975;-75
2021/12/18 01:16:07;;;;;;;13.40;3.00;;;;;;;2.59;79.45;102033.27;84822;1327;22610;-73
2021/12/18 01:23:05;;;;;;;8.30;3.60;;;;;;;2.54;79.74;102015.08;84834;1325;22656;-70
2021/12/18 01:25:12;;;;;;;7.40;3.00;;;;;;;2.56;79.67;102014.44;84808;1326;25475;-69
2021/12/18 01:27:24;;;;;;;6.60;3.30;;;;;;;2.52;79.47;102019.33;84818;1327;25444;-72
2021/12/18 01:29:31;;;;;;;4.40;2.70;;;;;;;2.47;79.61;102021.82;84812;1328;24267;-73
2021/12/18 01:31:38;;;;;;;7.40;3.60;;;;;;;2.42;79.34;102020.50;84803;1325;22726;-70
2021/12/18 01:33:44;;;;;;;9.30;3.60;;;;;;;2.34;79.44;102019.98;84799;1321;22682;-69
2021/12/18 01:35:52;;;;;;;7.60;4.00;;;;;;;2.25;79.37;102015.13;84802;1327;22790;-70
2021/12/18 01:37:59;;;;;;;12.20;3.80;;;;;;;2.17;79.52;102017.02;84807;1329;22584;-73
2021/12/18 01:40:10;;;;;;;13.00;4.20;;;;;;;2.12;79.56;102021.22;84806;1325;25434;-73
2021/12/18 01:42:55;;;;;;;8.30;3.50;;;;;;;2.03;79.42;102026.16;84863;1327;22597;-70
2021/12/18 01:45:05;;;;;;;9.60;5.00;;;;;;;1.94;79.52;102034.38;84837;1321;22745;-70
2021/12/18 01:52:16;;;;;;;8.10;3.60;;;;;;;1.66;79.57;102038.50;84740;1328;23923;-74
2021/12/18 01:54:26;;;;;;;9.20;5.10;;;;;;;1.53;79.79;102040.94;84821;1328;25449;-74
2021/12/18 01:56:33;;;;;;;12.80;4.80;;;;;;;1.43;80.02;102044.29;84825;1323;22735;-70
2021/12/18 01:58:44;;;;;;;14.70;4.20;;;;;;;1.36;80.15;102048.54;84746;1321;22601;-70
2021/12/18 02:00:51;;;;;;;7.70;4.10;;;;;;;1.25;80.08;102052.40;84793;1326;22600;-69
2021/12/18 02:03:01;;;;;;;9.00;4.40;;;;;;;1.15;79.96;102056.40;84836;1323;22651;-73
2021/12/18 02:05:10;;;;;;;10.00;4.40;;;;;;;1.05;80.20;102038.95;84809;1325;24357;-72
2021/12/18 02:07:16;;;;;;;11.80;4.80;;;;;;;1.02;80.53;102037.34;84793;1325;23932;-69
2021/12/18 02:09:36;;;;;;;10.90;5.20;;;;;;;1.02;80.78;102041.95;84810;1328;23927;-70
2021/12/18 02:11:43;;;;;;;11.60;5.00;;;;;;;0.98;80.79;102044.62;84783;1326;22629;-70
2021/12/18 02:14:21;;;;;;;11.60;5.40;;;;;;;0.90;80.61;102047.98;84800;1325;22625;-70
2021/12/18 02:21:23;;;;;;;7.50;3.50;;;;;;;0.58;80.61;102034.87;84814;1328;24683;-70
2021/12/18 02:23:28;;;;;;;;;;;;;;;0.49;80.85;102031.52;84822;1327;24399;-70
2021/12/18 02:25:36;;;;;;;10.90;4.20;;;;;;;0.42;80.95;102029.77;84813;1325;23105;-70
2021/12/18 02:27:43;;;;;;;15.80;5.50;;;;;;;0.40;81.19;102033.83;84831;1326;22583;-70
2021/12/18 02:29:50;;;;;;;8.30;3.60;;;;;;;0.39;81.37;102041.33;84834;1326;26501;-70
2021/12/18 02:31:57;;;;;;;9.40;3.70;;;;;;;0.35;81.23;102039.84;84831;1325;22658;-70
2021/12/18 02:34:14;;;;;;;9.20;3.70;;;;;;;0.27;80.90;102034.45;84818;1327;22606;-69
2021/12/18 02:36:25;;;;;;;9.10;4.00;;;;;;;0.16;81.05;102030.69;84832;1326;25331;-72
2021/12/18 02:38:57;;;;;;;6.80;3.60;;;;;;;0.09;81.08;102030.63;84794;1327;24253;-74
2021/12/18 02:41:13;;;;;;;9.30;3.50;;;;;;;-0.01;81.49;102031.00;84795;1325;22931;-73
2021/12/18 02:43:20;;;;;;;10.50;4.50;;;;;;;-0.11;81.45;102025.36;84829;1327;22855;-70
2021/12/18 02:45:27;;;;;;;6.40;3.00;;;;;;;-0.17;81.37;102024.99;84797;1323;25606;-69
2021/12/18 02:47:35;;;;;;;7.00;3.40;;;;;;;-0.22;81.41;102028.77;84826;1325;23949;-74
2021/12/18 02:49:48;;;;;;;8.50;3.50;;;;;;;-0.29;81.57;102026.98;84797;1326;22593;-74
2021/12/18 02:51:55;;;;;;;9.40;3.70;;;;;;;-0.32;81.62;102029.83;84835;1328;22592;-70
2021/12/18 02:54:02;;;;;;;9.10;4.30;;;;;;;-0.33;81.99;102033.58;84834;1326;22597;-69
2021/12/18 02:56:14;;;;;;;12.90;3.40;;;;;;;-0.33;81.90;102033.04;84851;1325;23910;-69
2021/12/18 02:58:21;;;;;;;10.70;4.40;;;;;;;-0.31;82.38;102038.94;84804;1326;22690;-69
2021/12/18 03:00:29;;;;;;;7.70;3.80;;;;;;;-0.26;82.78;102041.67;84816;1325;22613;-69
2021/12/18 03:02:41;;;;;;;9.90;4.60;;;;;;;-0.20;82.97;102041.36;84863;1329;22666;-73
2021/12/18 03:04:53;;;;;;;15.00;4.60;;;;;;;-0.12;82.97;102046.77;84812;1328;22811;-73
2021/12/18 03:07:03;;;;;;;9.00;4.00;;;;;;;-0.03;83.18;102046.39;84818;1325;22613;-73
2021/12/18 03:19:25;;;;;;;6.70;3.10;;;;;;;0.45;83.46;102047.34;84826;1327;23932;-70
2021/12/18 03:22:21;;;;;;;9.20;4.00;;;;;;;0.51;83.49;102034.50;84789;1322;22608;-73
2021/12/18 03:24:30;;;;;;;7.60;3.90;;;;;;;0.58;83.44;102019.38;84748;1327;25444;-74
2021/12/18 03:26:37;;;;;;;7.50;3.60;;;;;;;0.66;83.44;102007.43;84818;1327;22590;-73
2021/12/18 03:28:44;;;;;;;9.50;3.80;;;;;;;0.71;83.44;102002.10;84805;1325;24271;-73
2021/12/18 03:30:51;;;;;;;8.20;3.40;;;;;;;0.77;83.48;101995.41;84810;1325;22579;-74
2021/12/18 03:32:59;;;;;;;12.70;4.10;;;;;;;0.85;83.56;101995.10;84832;1327;25426;-75
2021/12/18 03:35:07;;;;;;;9.30;3.90;;;;;;;0.92;83.62;102002.84;84784;1328;24261;-75
2021/12/18 03:37:14;;;;;;;7.70;4.20;;;;;;;0.94;83.63;102003.11;84813;1318;22683;-71
2021/12/18 03:39:21;;;;;;;6.20;3.70;;;;;;;0.99;83.65;102007.54;84816;1325;22611;-70
2021/12/18 03:41:30;;;;;;;11.10;4.10;;;;;;;1.04;83.51;102011.95;84794;1325;24359;-70
2021/12/18 03:43:37;;;;;;;8.90;3.70;;;;;;;1.09;83.39;102015.86;84813;1325;22626;-69
2021/12/18 03:45:44;;;;;;;7.50;3.40;;;;;;;1.12;83.43;102019.54;84822;1326;24104;-75
2021/12/18 03:47:52;;;;;;;8.30;3.00;;;;;;;1.18;83.42;102033.13;84842;1327;25580;-70
2021/12/18 03:49:59;;;;;;;10.10;3.90;;;;;;;1.24;83.41;102035.35;84808;1326;23978;-70
2021/12/18 03:52:09;;;;;;;13.10;6.00;;;;;;;1.29;83.28;102031.02;84762;1327;24238;-70
2021/12/18 03:54:16;;;;;;;13.50;3.90;;;;;;;1.34;83.29;102026.67;84796;1323;24318;-69
2021/12/18 03:56:23;;;;;;;8.70;3.80;;;;;;;1.40;83.47;102023.22;84790;1327;22881;-70
2021/12/18 03:58:29;;;;;;;7.40;4.10;;;;;;;1.43;83.24;102024.16;84807;1326;24185;-69
2021/12/18 04:00:37;;;;;;;14.50;4.40;;;;;;;1.44;83.22;102024.20;84787;1325;25552;-70
2021/12/18 04:02:44;;;;;;;9.60;3.90;;;;;;;1.44;83.30;102026.27;84809;1327;22693;-73
2021/12/18 04:04:51;;;;;;;8.70;4.00;;;;;;;1.45;83.19;102027.83;84820;1328;24400;-73
2021/12/18 04:06:59;;;;;;;9.70;5.00;;;;;;;1.45;83.10;102020.42;84827;1327;22652;-69
2021/12/18 04:09:06;;;;;;;7.50;4.60;;;;;;;1.46;82.93;102023.72;84820;1327;22589;-69
2021/12/18 04:11:13;;;;;;;13.40;5.20;;;;;;;1.49;83.03;102023.13;84802;1327;27124;-69
2021/12/18 04:13:20;;;;;;;9.20;3.80;;;;;;;1.54;83.08;102029.42;84835;1322;22812;-73
2021/12/18 04:15:30;;;;;;;8.60;4.40;;;;;;;1.58;83.13;102033.30;84787;1328;22604;-73
2021/12/18 04:17:37;;;;;;;12.90;4.30;;;;;;;1.62;83.19;102034.42;84821;1327;25365;-70
2021/12/18 04:19:47;;;;;;;11.90;4.40;;;;;;;1.62;83.02;102026.52;84830;1329;22592;-73
2021/12/18 04:21:54;;;;;;;15.70;5.60;;;;;;;1.62;83.06;102022.25;84744;1327;22677;-69
2021/12/18 04:24:02;;;;;;;8.60;3.30;;;;;;;1.62;82.95;102015.52;84821;1328;22593;-70
2021/12/18 04:26:09;;;;;;;11.90;4.40;;;;;;;1.62;82.88;102016.73;84827;1329;24345;-70
2021/12/18 04:28:16;;;;;;;8.40;3.50;;;;;;;1.64;82.87;102020.91;84797;1326;22593;-70
2021/12/18 04:30:23;;;;;;;8.70;3.60;;;;;;;1.67;82.85;102018.75;84619;1328;236969;-71
2021/12/18 04:32:30;;;;;;;7.00;4.10;;;;;;;1.72;83.00;102016.11;84769;1327;22596;-70
2021/12/18 04:34:37;;;;;;;10.20;4.70;;;;;;;1.72;82.90;102014.39;84796;1326;22600;-70
2021/12/18 04:36:44;;;;;;;12.50;4.40;;;;;;;1.74;83.05;102012.56;84805;1328;22597;-69
2021/12/18 04:38:54;;;;;;;6.60;3.80;;;;;;;1.76;82.93;102007.26;84827;1326;24994;-70
2021/12/18 04:41:03;;;;;;;11.20;4.70;;;;;;;1.76;82.94;102011.58;84805;1326;22624;-69
2021/12/18 04:43:11;;;;;;;8.90;5.00;;;;;;;1.75;82.87;102012.41;84851;1325;22783;-74
2021/12/18 04:45:21;;;;;;;10.40;4.20;;;;;;;1.74;82.92;102008.42;84807;1327;22702;-73
2021/12/18 04:47:28;;;;;;;8.40;3.70;;;;;;;1.75;82.90;102007.42;84826;1325;22591;-69
2021/12/18 04:49:35;;;;;;;13.50;5.50;;;;;;;1.76;82.87;102004.17;84796;1325;22612;-69
2021/12/18 04:51:42;;;;;;;10.70;4.60;;;;;;;1.78;82.78;102001.46;84825;1325;22753;-69
2021/12/18 04:53:53;;;;;;;8.80;4.20;;;;;;;1.80;82.84;101995.84;84826;1327;22612;-70
2021/12/18 04:55:59;;;;;;;13.10;6.60;;;;;;;1.83;83.06;101995.91;84834;1328;22841;-69
2021/12/18 04:58:06;;;;;;;9.30;3.90;;;;;;;1.87;83.05;101995.84;84835;1322;24395;-73
2021/12/18 05:00:16;;;;;;;11.70;4.40;;;;;;;1.92;83.07;101995.95;84776;1327;23982;-73
2021/12/18 05:02:33;;;;;;;8.80;4.00;;;;;;;1.93;83.00;101998.05;84849;1326;22629;-72
2021/12/18 05:04:43;;;;;;;9.40;4.00;;;;;;;1.91;82.92;101997.99;84740;1328;22592;-73
2021/12/18 05:06:53;;;;;;;12.50;4.00;;;;;;;1.92;82.89;102001.13;84834;1327;22626;-73
2021/12/18 05:09:01;;;;;;;8.50;4.00;;;;;;;1.96;82.84;102002.91;84826;1325;22633;-74
2021/12/18 05:11:10;;;;;;;8.60;4.00;;;;;;;1.98;82.79;102000.41;84783;1318;24356;-73
2021/12/18 05:13:18;;;;;;;10.50;4.60;;;;;;;1.98;82.65;101993.70;84817;1329;25442;-74
2021/12/18 05:15:25;;;;;;;9.10;4.10;;;;;;;2.00;82.76;101992.86;84808;1326;22927;-75
2021/12/18 05:17:32;;;;;;;7.80;4.30;;;;;;;2.03;82.94;101988.13;84844;1327;24169;-71
2021/12/18 05:19:39;;;;;;;10.80;5.00;;;;;;;2.04;82.87;101986.42;84806;1327;22829;-69
2021/12/18 05:21:49;;;;;;;9.70;3.90;;;;;;;2.03;82.84;101983.81;84790;1327;22605;-73
2021/12/18 05:24:00;;;;;;;8.90;4.30;;;;;;;2.04;82.83;101985.21;84823;1327;25930;-73
2021/12/18 05:26:06;;;;;;;11.50;4.40;;;;;;;2.06;82.86;101984.41;84803;1326;23930;-74
2021/12/18 05:28:16;;;;;;;15.50;3.80;;;;;;;2.11;82.91;101978.48;84823;1327;25495;-74
2021/12/18 05:30:25;;;;;;;;;;;;;;;2.15;82.64;101969.27;84844;1327;26472;-75
2021/12/18 05:32:34;;;;;;;10.70;4.30;;;;;;;2.14;82.84;101973.39;84857;1325;23148;-70
2021/12/18 05:34:42;;;;;;;10.00;4.40;;;;;;;2.19;82.81;101978.14;84849;1325;22624;-70
2021/12/18 05:37:17;;;;;;;9.70;4.70;;;;;;;2.22;82.90;101984.60;84816;1325;22583;-70
2021/12/18 05:39:24;;;;;;;8.50;4.00;;;;;;;2.22;82.77;101983.21;84806;1319;22699;-70
2021/12/18 05:41:34;;;;;;;10.60;4.10;;;;;;;2.22;82.73;101980.47;84813;1327;22621;-73
2021/12/18 05:43:44;;;;;;;9.10;4.00;;;;;;;2.25;82.76;101988.09;84826;1326;22590;-72
2021/12/18 05:45:49;;;;;;;;;;;;;;;2.27;82.67;101993.66;84827;1322;22906;-74
2021/12/18 05:47:59;;;;;;;9.00;4.00;;;;;;;2.29;82.81;101995.40;84832;1328;23895;-70
2021/12/18 05:50:06;;;;;;;10.90;3.90;;;;;;;2.34;82.46;101993.45;84760;1330;25297;-69
2021/12/18 05:52:13;;;;;;;10.90;4.70;;;;;;;2.37;82.56;101991.27;84844;1329;23981;-73
2021/12/18 05:54:20;;;;;;;8.30;4.40;;;;;;;2.39;82.51;101990.63;84824;1326;24288;-73
2021/12/18 05:56:29;;;;;;;6.80;3.60;;;;;;;2.37;82.46;101991.82;84834;1329;26525;-73
2021/12/18 05:58:41;;;;;;;14.20;3.80;;;;;;;2.38;82.45;101994.25;84801;1329;24072;-73
2021/12/18 06:00:47;;;;;;;9.90;3.80;;;;;;;2.39;82.38;101998.05;84815;1327;22689;-73
2021/12/18 06:02:54;;;;;;;10.40;5.00;;;;;;;2.40;82.43;102000.80;84840;1326;22609;-71
2021/12/18 06:05:01;;;;;;;9.40;4.20;;;;;;;2.38;82.21;101996.98;84830;1326;23901;-71
2021/12/18 06:07:15;;;;;;;9.30;4.20;;;;;;;2.34;82.12;101994.66;84822;1326;22605;-73
2021/12/18 06:09:23;;;;;;;8.40;4.10;;;;;;;2.36;82.03;101994.00;84807;1327;22779;-73
2021/12/18 06:11:31;;;;;;;8.80;3.70;;;;;;;2.39;82.02;101988.23;84836;1329;22751;-72
2021/12/18 06:13:41;;;;;;;8.90;3.50;;;;;;;2.42;82.14;101988.45;84824;1325;25595;-72
2021/12/18 06:15:51;;;;;;;9.30;3.60;;;;;;;2.46;82.33;101984.40;84796;1327;22656;-73
2021/12/18 06:17:58;;;;;;;7.20;3.00;;;;;;;2.47;82.02;101983.39;84845;1326;22609;-73
2021/12/18 06:20:06;;;;;;;11.60;4.30;;;;;;;2.47;81.92;101987.70;84809;1323;24262;-73
2021/12/18 06:22:13;;;;;;;8.90;3.90;;;;;;;2.44;81.94;101981.96;84822;1327;22617;-72
2021/12/18 06:24:24;;;;;;;7.10;2.90;;;;;;;2.44;81.94;101979.89;84818;1325;22614;-72
2021/12/18 06:26:31;;;;;;;7.20;3.80;;;;;;;2.45;81.88;101979.91;84831;1328;25272;-72
2021/12/18 06:28:38;;;;;;;10.20;3.50;;;;;;;2.47;81.86;101985.14;84801;1326;22598;-74
2021/12/18 06:30:48;;;;;;;6.60;2.70;;;;;;;2.48;81.80;101984.64;84812;1329;25291;-73
2021/12/18 06:32:55;;;;;;;9.80;3.90;;;;;;;2.51;81.78;101989.17;84800;1322;22720;-72
2021/12/18 06:35:02;;;;;;;10.50;3.70;;;;;;;2.54;81.77;101993.54;84810;1325;22588;-73
2021/12/18 06:37:09;;;;;;;8.60;3.90;;;;;;;2.58;81.95;101994.48;84807;1327;22630;-69
2021/12/18 06:39:15;;;;;;;6.50;2.90;;;;;;;2.61;81.77;101992.80;84798;1329;22624;-70
2021/12/18 06:41:22;;;;;;;10.70;4.00;;;;;;;2.60;81.69;101991.94;84821;1327;22586;-70
2021/12/18 06:43:30;;;;;;;7.30;3.60;;;;;;;2.60;81.79;101979.52;84797;1322;24263;-70
2021/12/18 06:45:37;;;;;;;8.80;4.20;;;;;;;2.61;81.80;101978.02;84802;1329;22666;-70
2021/12/18 06:47:44;;;;;;;7.10;3.30;;;;;;;2.59;81.70;101976.08;84831;1323;22664;-73
2021/12/18 06:49:51;;;;;;;6.70;3.70;;;;;;;2.59;81.51;101976.59;84822;1329;22599;-73
2021/12/18 06:52:01;;;;;;;10.10;3.40;;;;;;;2.61;81.46;101973.88;84824;1328;25920;-70
2021/12/18 06:54:11;;;;;;;12.30;4.90;;;;;;;2.57;81.15;101972.77;84819;1327;23763;-70
2021/12/18 06:56:18;;;;;;;9.90;4.50;;;;;;;2.57;81.22;101978.27;84803;1326;22577;-73
2021/12/18 06:58:25;;;;;;;7.90;3.50;;;;;;;2.60;81.46;101976.61;84826;1325;24023;-70
2021/12/18 07:00:32;;;;;;;12.60;5.70;;;;;;;2.65;81.71;101966.36;84817;1329;22606;-72
2021/12/18 07:02:40;;;;;;;9.90;5.50;;;;;;;2.68;81.64;101966.79;84790;1323;22583;-74
2021/12/18 07:04:47;;;;;;;14.50;6.10;;;;;;;2.67;81.40;101960.90;84856;1325;22584;-73
2021/12/18 07:06:57;;;;;;;11.50;5.90;;;;;;;2.65;81.42;101957.75;84841;1325;24271;-74
2021/12/18 07:09:07;;;;;;;13.40;5.90;;;;;;;2.64;81.20;101957.05;84792;1325;22596;-73
2021/12/18 07:11:14;;;;;;;18.30;6.90;;;;;;;2.62;81.34;101951.66;84827;1326;22802;-73
2021/12/18 07:13:21;;;;;;;10.60;5.80;;;;;;;2.61;81.26;101946.84;84820;1322;22727;-70
2021/12/18 07:15:28;;;;;;;8.90;5.00;;;;;;;2.63;81.35;101943.25;84810;1326;23914;-70
2021/12/18 07:17:35;;;;;;;7.40;4.70;;;;;;;2.64;81.22;101938.27;84828;1328;22872;-73
2021/12/18 07:19:42;;;;;;;11.90;5.80;;;;;;;2.66;81.09;101940.54;84806;1327;22781;-73
2021/12/18 07:21:48;;;;;;;14.30;7.10;;;;;;;2.67;81.26;101934.88;84782;1329;23902;-70
2021/12/18 07:23:55;;;;;;;10.70;6.90;;;;;;;2.70;81.11;101939.06;84833;1325;22609;-70
2021/12/18 07:26:02;;;;;;;15.90;8.90;;;;;;;2.67;81.07;101948.48;84773;1327;22590;-70
2021/12/18 07:28:09;;;;;;;16.00;7.60;;;;;;;2.65;81.04;101950.69;84815;1327;22593;-68
2021/12/18 07:30:16;;;;;;;10.10;7.30;;;;;;;2.61;81.02;101949.93;84819;1324;22770;-69
2021/12/18 07:32:23;;;;;;;11.60;7.60;;;;;;;2.54;80.75;101942.71;84795;1327;22618;-69
2021/12/18 07:34:29;;;;;;;11.70;6.50;;;;;;;2.50;81.06;101942.98;84833;1329;22620;-69
2021/12/18 07:36:36;;;;;;;16.10;7.90;;;;;;;2.51;81.13;101948.34;84831;1325;22757;-69
2021/12/18 07:38:46;;;;;;;29.00;10.60;;;;;;;2.53;81.07;101957.17;84796;1328;22614;-68
2021/12/18 07:58:19;;;;;;;25.40;15.40;;;;;;;3.03;80.26;101972.95;81744;1371;558055;-76
2021/12/18 08:00:26;;;;;;;25.10;11.90;;;;;;;3.06;80.02;101973.55;83997;1343;25329;-75
2021/12/18 08:02:33;;;;;;;63.70;29.20;;;;;;;3.00;79.97;101972.57;83929;1340;283776;-76
2021/12/18 08:04:40;;;;;;;83.00;34.00;;;;;;;2.95;80.13;101975.58;84135;1339;22633;-74
2021/12/18 08:06:49;;;;;;;24.10;14.70;;;;;;;2.94;80.24;101971.92;84122;1339;26016;-76
2021/12/18 08:08:56;;;;;;;17.10;9.80;;;;;;;2.91;80.32;101963.95;84618;1330;22626;-75
2021/12/18 08:11:06;;;;;;;13.00;9.10;;;;;;;2.91;80.47;101966.69;84643;1329;22617;-75
2021/12/18 08:13:19;;;;;;;16.90;10.30;;;;;;;2.93;80.48;101976.22;84792;1316;22696;-75
2021/12/18 08:15:26;;;;;;;17.80;11.70;;;;;;;2.86;80.15;101976.44;84668;1329;22702;-75
2021/12/18 08:17:33;;;;;;;16.90;11.30;;;;;;;2.78;80.53;101977.48;84708;1326;23050;-70
2021/12/18 08:19:40;;;;;;;22.10;12.80;;;;;;;2.76;80.60;101976.08;84673;1330;23940;-70
2021/12/18 08:21:47;;;;;;;18.00;12.60;;;;;;;2.69;80.55;101973.02;84843;1316;22610;-75
2021/12/18 08:23:56;;;;;;;20.90;12.20;;;;;;;2.67;80.84;101968.98;84733;1327;22736;-75
2021/12/18 08:26:03;;;;;;;20.40;11.00;;;;;;;2.67;80.95;101967.10;84765;1327;24242;-74
2021/12/18 08:28:10;;;;;;;17.50;10.40;;;;;;;2.68;80.91;101959.70;84721;1330;22609;-74
2021/12/18 08:30:19;;;;;;;16.50;10.60;;;;;;;2.68;80.95;101957.83;84679;1330;25037;-75
2021/12/18 08:32:26;;;;;;;19.50;11.00;;;;;;;2.73;81.24;101954.98;84758;1326;23000;-75
2021/12/18 08:34:36;;;;;;;33.10;16.20;;;;;;;2.74;81.05;101951.73;84778;1328;22607;-74
2021/12/18 08:36:42;;;;;;;23.70;14.10;;;;;;;2.73;81.11;101944.47;84759;1327;22635;-68
2021/12/18 08:38:52;;;;;;;45.60;21.40;;;;;;;2.74;81.07;101943.97;84768;1325;22767;-70
2021/12/18 08:40:58;;;;;;;52.00;24.40;;;;;;;2.74;81.15;101943.09;84764;1327;25495;-69
2021/12/18 08:43:06;;;;;;;42.50;18.40;;;;;;;2.69;80.96;101943.02;84765;1328;22584;-74
2021/12/18 08:45:16;;;;;;;92.80;36.70;;;;;;;2.69;81.12;101945.42;84787;1331;23969;-75
2021/12/18 08:47:25;;;;;;;;;;;;;;;2.67;81.14;101940.55;84756;1328;25800;-74
2021/12/18 08:49:32;;;;;;;28.50;15.10;;;;;;;2.65;81.28;101939.99;84742;1328;24380;-75
2021/12/18 08:51:43;;;;;;;15.40;10.60;;;;;;;2.64;81.25;101935.68;84774;1327;24265;-76
2021/12/18 08:53:53;;;;;;;23.90;11.80;;;;;;;2.66;81.29;101933.15;84746;1325;22823;-74
2021/12/18 08:56:02;;;;;;;25.50;11.30;;;;;;;2.69;81.38;101925.96;84744;1327;22594;-70
2021/12/18 08:58:09;;;;;;;44.10;23.40;;;;;;;2.73;81.61;101920.86;84753;1327;25507;-70
2021/12/18 09:00:18;;;;;;;36.50;18.30;;;;;;;2.75;81.43;101910.58;84737;1327;22590;-74
2021/12/18 09:02:24;;;;;;;28.20;13.60;;;;;;;2.80;81.76;101901.00;84735;1327;23414;-76
2021/12/18 09:04:31;;;;;;;30.20;15.30;;;;;;;2.85;81.72;101894.55;84732;1325;22660;-75
2021/12/18 09:06:38;;;;;;;25.90;13.00;;;;;;;2.87;81.51;101895.45;84740;1327;22731;-70
2021/12/18 09:08:44;;;;;;;28.80;15.10;;;;;;;2.88;81.47;101894.25;84699;1327;24330;-69
2021/12/18 09:10:53;;;;;;;31.30;16.10;;;;;;;2.89;81.66;101894.44;84734;1330;22692;-69
2021/12/18 09:13:00;;;;;;;28.80;16.50;;;;;;;2.92;81.71;101895.02;84738;1326;22574;-69
2021/12/18 09:15:08;;;;;;;33.80;14.50;;;;;;;2.94;81.52;101894.70;84718;1329;23936;-70
2021/12/18 09:17:18;;;;;;;25.10;14.10;;;;;;;2.97;81.56;101886.15;84759;1327;22621;-70
2021/12/18 09:19:25;;;;;;;21.80;12.70;;;;;;;3.03;81.55;101874.52;84720;1328;22613;-70
2021/12/18 09:21:35;;;;;;;25.20;13.10;;;;;;;3.05;81.41;101869.56;84733;1325;24348;-69
2021/12/18 09:23:42;;;;;;;37.10;15.40;;;;;;;3.05;81.59;101866.46;84693;1332;24054;-69
2021/12/18 09:25:49;;;;;;;31.90;15.70;;;;;;;3.09;81.60;101868.09;84757;1327;22632;-75
2021/12/18 09:28:00;;;;;;;37.20;16.70;;;;;;;3.12;81.62;101857.95;84825;1313;22608;-70
2021/12/18 09:30:08;;;;;;;31.30;17.60;;;;;;;3.11;81.48;101855.36;84714;1327;22603;-76
2021/12/18 09:32:18;;;;;;;31.10;15.10;;;;;;;3.11;81.54;101848.98;83362;1314;1003091;-76
2021/12/18 09:34:29;;;;;;;30.20;15.50;;;;;;;3.13;81.65;101847.80;84605;1329;22722;-75
2021/12/18 09:36:36;;;;;;;29.30;14.30;;;;;;;3.16;81.74;101855.43;84582;1330;24304;-69
2021/12/18 09:38:43;;;;;;;36.40;20.50;;;;;;;3.24;81.88;101859.69;84587;1329;22607;-69
2021/12/18 09:40:53;;;;;;;32.40;16.50;;;;;;;3.30;82.04;101865.83;84598;1330;26024;-69
2021/12/18 09:43:02;;;;;;;22.70;12.30;;;;;;;3.34;81.86;101863.48;84552;1329;22684;-69
2021/12/18 09:45:13;;;;;;;25.30;14.10;;;;;;;3.36;81.73;101863.34;84597;1330;22621;-71
2021/12/18 09:47:23;;;;;;;20.90;13.50;;;;;;;3.33;81.40;101860.52;84604;1330;22629;-75
2021/12/18 09:49:29;;;;;;;22.10;14.10;;;;;;;3.30;81.39;101861.36;84579;1329;22725;-74
2021/12/18 09:51:37;;;;;;;29.00;18.10;;;;;;;3.25;81.24;101850.23;84590;1330;24358;-75
2021/12/18 09:53:45;;;;;;;23.60;13.90;;;;;;;3.21;81.41;101838.44;84596;1330;22619;-76
2021/12/18 09:55:52;;;;;;;18.50;11.70;;;;;;;3.20;81.42;101835.48;84583;1330;22618;-75
2021/12/18 09:57:58;;;;;;;18.50;11.90;;;;;;;3.21;81.39;101832.92;84770;1316;22653;-75
2021/12/18 10:00:06;;;;;;;15.50;10.20;;;;;;;3.21;81.45;101832.23;84728;1324;22680;-75
2021/12/18 10:02:13;;;;;;;18.30;12.30;;;;;;;3.24;81.38;101832.96;84856;1313;22722;-75
2021/12/18 10:04:31;;;;;;;23.00;14.70;;;;;;;3.24;81.36;101832.61;84674;1327;22614;-75
2021/12/18 10:06:44;;;;;;;19.90;14.00;;;;;;;3.25;81.27;101821.94;84688;1330;23892;-70
2021/12/18 10:08:54;;;;;;;21.90;15.20;;;;;;;3.23;81.32;101819.67;84641;1330;22612;-69
2021/12/18 10:11:08;;;;;;;22.10;13.80;;;;;;;3.23;81.37;101816.73;84666;1330;22855;-70
2021/12/18 10:13:16;;;;;;;32.00;17.70;;;;;;;3.24;81.52;101823.13;84620;1328;22624;-70
2021/12/18 10:15:26;;;;;;;27.00;17.00;;;;;;;3.22;81.39;101816.38;84603;1330;22632;-75
2021/12/18 10:17:33;;;;;;;19.00;12.00;;;;;;;3.22;81.53;101811.38;84649;1330;25475;-75
2021/12/18 10:19:40;;;;;;;18.90;12.30;;;;;;;3.23;81.36;101811.39;84627;1332;22619;-75
2021/12/18 10:21:48;;;;;;;19.70;13.60;;;;;;;3.25;81.29;101804.88;84618;1330;25316;-70
2021/12/18 10:23:58;;;;;;;20.20;11.90;;;;;;;3.25;81.58;101802.81;84654;1329;22696;-70
2021/12/18 10:26:11;;;;;;;26.10;14.60;;;;;;;3.25;81.41;101796.94;84621;1330;22634;-76
2021/12/18 10:28:23;;;;;;;20.70;13.70;;;;;;;3.25;81.43;101796.24;84625;1329;24248;-75
2021/12/18 10:30:30;;;;;;;26.40;17.20;;;;;;;3.23;81.52;101793.11;84618;1329;25450;-77
2021/12/18 10:32:43;;;;;;;23.20;16.00;;;;;;;3.22;81.51;101782.92;84641;1330;22724;-76
2021/12/18 10:34:54;;;;;;;32.60;16.40;;;;;;;3.18;81.45;101781.13;84623;1329;24452;-77
2021/12/18 10:37:21;;;;;;;46.40;18.70;;;;;;;3.14;81.28;101780.56;84578;1328;22627;-75
2021/12/18 10:39:30;;;;;;;33.60;17.70;;;;;;;3.12;81.55;101776.23;84587;1330;22889;-75
2021/12/18 10:41:38;;;;;;;37.70;19.40;;;;;;;3.13;81.36;101771.23;84635;1329;22539;-76
2021/12/18 10:44:01;;;;;;;54.90;27.20;;;;;;;3.12;81.46;101773.63;84566;1328;25456;-76